sensor_id;sensor_type;location;lat;lon;timestamp;temperature;humidity
50690;DHT22;71367;48.298;11.238;2023-07-29T00:08:15;16.60;99.90
50690;DHT22;71367;48.298;11.238;2023-07-29T00:23:18;16.50;99.90
50690;DHT22;71367;48.298;11.238;2023-07-29T00:38:20;16.30;99.90
50690;DHT22;71367;48.298;11.238;2023-07-29T00:53:23;16.20;99.90
50690;DHT22;71367;48.298;11.238;2023-07-29T01:08:33;16.00;99.90
50690;DHT22;71367;48.298;11.238;2023-07-29T01:23:38;15.80;99.90
50690;DHT22;71367;48.298;11.238;2023-07-29T01:38:51;15.60;99.90
50690;DHT22;71367;48.298;11.238;2023-07-29T01:54:03;15.50;99.90
50690;DHT22;71367;48.298;11.238;2023-07-29T02:09:06;15.20;99.90
50690;DHT22;71367;48.298;11.238;2023-07-29T02:24:10;15.00;99.90
50690;DHT22;71367;48.298;11.238;2023-07-29T02:39:22;14.80;99.90
50690;DHT22;71367;48.298;11.238;2023-07-29T02:54:29;14.60;99.90
50690;DHT22;71367;48.298;11.238;2023-07-29T03:09:32;14.60;99.90
50690;DHT22;71367;48.298;11.238;2023-07-29T03:24:37;14.60;99.90
50690;DHT22;71367;48.298;11.238;2023-07-29T03:39:44;14.60;99.90
50690;DHT22;71367;48.298;11.238;2023-07-29T03:54:47;14.70;99.90
50690;DHT22;71367;48.298;11.238;2023-07-29T04:09:53;14.90;99.90
50690;DHT22;71367;48.298;11.238;2023-07-29T04:24:59;14.90;99.90
50690;DHT22;71367;48.298;11.238;2023-07-29T04:40:02;14.90;99.90
50690;DHT22;71367;48.298;11.238;2023-07-29T04:55:07;15.00;99.90
50690;DHT22;71367;48.298;11.238;2023-07-29T05:10:12;15.60;99.90
50690;DHT22;71367;48.298;11.238;2023-07-29T05:25:20;16.40;99.90
50690;DHT22;71367;48.298;11.238;2023-07-29T05:40:24;17.30;99.90
50690;DHT22;71367;48.298;11.238;2023-07-29T05:55:29;17.80;99.90
50690;DHT22;71367;48.298;11.238;2023-07-29T06:10:33;18.20;99.90
50690;DHT22;71367;48.298;11.238;2023-07-29T06:25:35;18.80;99.90
50690;DHT22;71367;48.298;11.238;2023-07-29T06:40:37;19.60;99.90
50690;DHT22;71367;48.298;11.238;2023-07-29T06:55:40;19.40;99.90
50690;DHT22;71367;48.298;11.238;2023-07-29T07:10:42;18.90;99.90
50690;DHT22;71367;48.298;11.238;2023-07-29T07:25:48;18.80;99.90
50690;DHT22;71367;48.298;11.238;2023-07-29T07:40:56;18.90;99.90
50690;DHT22;71367;48.298;11.238;2023-07-29T07:55:59;19.60;99.90
50690;DHT22;71367;48.298;11.238;2023-07-29T08:11:02;20.20;99.90
50690;DHT22;71367;48.298;11.238;2023-07-29T08:26:05;20.80;99.00
50690;DHT22;71367;48.298;11.238;2023-07-29T08:41:13;21.20;97.90
50690;DHT22;71367;48.298;11.238;2023-07-29T08:56:16;21.90;97.80
50690;DHT22;71367;48.298;11.238;2023-07-29T09:11:20;22.30;96.80
50690;DHT22;71367;48.298;11.238;2023-07-29T09:26:25;23.60;94.10
50690;DHT22;71367;48.298;11.238;2023-07-29T09:41:29;24.70;92.20
50690;DHT22;71367;48.298;11.238;2023-07-29T09:56:41;24.60;91.70
50690;DHT22;71367;48.298;11.238;2023-07-29T10:11:44;25.90;90.20
50690;DHT22;71367;48.298;11.238;2023-07-29T10:26:49;26.50;85.80
50690;DHT22;71367;48.298;11.238;2023-07-29T10:41:56;25.90;84.10
50690;DHT22;71367;48.298;11.238;2023-07-29T10:56:59;22.90;89.00
50690;DHT22;71367;48.298;11.238;2023-07-29T11:12:06;20.20;96.70
50690;DHT22;71367;48.298;11.238;2023-07-29T11:27:25;19.00;99.90
50690;DHT22;71367;48.298;11.238;2023-07-29T11:42:28;21.40;99.70
50690;DHT22;71367;48.298;11.238;2023-07-29T11:57:34;23.20;96.00
50690;DHT22;71367;48.298;11.238;2023-07-29T12:12:44;23.70;94.00
50690;DHT22;71367;48.298;11.238;2023-07-29T12:27:46;24.70;92.40
50690;DHT22;71367;48.298;11.238;2023-07-29T12:42:49;23.10;95.10
50690;DHT22;71367;48.298;11.238;2023-07-29T12:57:52;22.30;97.80
50690;DHT22;71367;48.298;11.238;2023-07-29T13:12:54;22.60;98.30
50690;DHT22;71367;48.298;11.238;2023-07-29T13:27:56;23.40;97.70
50690;DHT22;71367;48.298;11.238;2023-07-29T13:42:59;24.40;96.20
50690;DHT22;71367;48.298;11.238;2023-07-29T13:58:02;25.70;93.90
50690;DHT22;71367;48.298;11.238;2023-07-29T14:13:04;26.80;91.20
50690;DHT22;71367;48.298;11.238;2023-07-29T14:28:08;26.80;90.20
50690;DHT22;71367;48.298;11.238;2023-07-29T14:43:10;26.50;90.10
50690;DHT22;71367;48.298;11.238;2023-07-29T14:58:12;24.90;90.80
50690;DHT22;71367;48.298;11.238;2023-07-29T15:13:14;20.20;92.20
50690;DHT22;71367;48.298;11.238;2023-07-29T15:28:17;18.60;98.30
50690;DHT22;71367;48.298;11.238;2023-07-29T15:43:19;18.00;99.90
50690;DHT22;71367;48.298;11.238;2023-07-29T15:58:22;18.60;99.90
50690;DHT22;71367;48.298;11.238;2023-07-29T16:13:24;19.30;99.90
50690;DHT22;71367;48.298;11.238;2023-07-29T16:28:29;19.60;99.90
50690;DHT22;71367;48.298;11.238;2023-07-29T16:43:31;19.80;99.90
50690;DHT22;71367;48.298;11.238;2023-07-29T16:58:34;19.60;99.90
50690;DHT22;71367;48.298;11.238;2023-07-29T17:13:37;19.10;99.90
50690;DHT22;71367;48.298;11.238;2023-07-29T17:28:40;19.30;99.90
50690;DHT22;71367;48.298;11.238;2023-07-29T17:43:48;18.40;99.90
50690;DHT22;71367;48.298;11.238;2023-07-29T17:58:57;17.90;99.90
50690;DHT22;71367;48.298;11.238;2023-07-29T18:14:01;18.00;99.90
50690;DHT22;71367;48.298;11.238;2023-07-29T18:29:06;18.10;99.90
50690;DHT22;71367;48.298;11.238;2023-07-29T18:44:09;18.10;99.90
50690;DHT22;71367;48.298;11.238;2023-07-29T18:59:11;18.20;99.90
50690;DHT22;71367;48.298;11.238;2023-07-29T19:14:15;18.10;99.90
50690;DHT22;71367;48.298;11.238;2023-07-29T19:29:22;18.10;99.90
50690;DHT22;71367;48.298;11.238;2023-07-29T19:44:26;18.10;99.90
50690;DHT22;71367;48.298;11.238;2023-07-29T19:59:29;18.10;99.90
50690;DHT22;71367;48.298;11.238;2023-07-29T20:14:35;18.10;99.90
50690;DHT22;71367;48.298;11.238;2023-07-29T20:29:45;18.00;99.90
50690;DHT22;71367;48.298;11.238;2023-07-29T20:44:51;17.90;99.90
50690;DHT22;71367;48.298;11.238;2023-07-29T20:59:54;17.90;99.90
50690;DHT22;71367;48.298;11.238;2023-07-29T21:14:57;17.80;99.90
50690;DHT22;71367;48.298;11.238;2023-07-29T21:30:04;17.70;99.90
50690;DHT22;71367;48.298;11.238;2023-07-29T21:45:08;17.80;99.90
50690;DHT22;71367;48.298;11.238;2023-07-29T22:00:12;17.80;99.90
50690;DHT22;71367;48.298;11.238;2023-07-29T22:15:18;17.80;99.90
50690;DHT22;71367;48.298;11.238;2023-07-29T22:30:21;17.70;99.90
50690;DHT22;71367;48.298;11.238;2023-07-29T22:45:26;17.60;99.90
50690;DHT22;71367;48.298;11.238;2023-07-29T23:00:28;17.50;99.90
50690;DHT22;71367;48.298;11.238;2023-07-29T23:15:35;17.50;99.90
50690;DHT22;71367;48.298;11.238;2023-07-29T23:30:40;17.50;99.90
50690;DHT22;71367;48.298;11.238;2023-07-29T23:45:48;17.40;99.90
